sensor_id;sensor_type;location;lat;lon;timestamp;pressure;altitude;pressure_sealevel;temperature;humidity
22241;BME280;11289;52.524;13.694;2022-10-16T00:01:36;100544.03;;;13.91;86.06
22241;BME280;11289;52.524;13.694;2022-10-16T00:04:02;100545.19;;;13.90;86.08
22241;BME280;11289;52.524;13.694;2022-10-16T00:06:29;100541.25;;;13.91;86.46
22241;BME280;11289;52.524;13.694;2022-10-16T00:08:55;100552.50;;;13.95;86.44
22241;BME280;11289;52.524;13.694;2022-10-16T00:11:26;100513.53;;;13.70;86.46
22241;BME280;11289;52.524;13.694;2022-10-16T00:13:55;100557.34;;;13.98;86.24
22241;BME280;11289;52.524;13.694;2022-10-16T00:16:21;100562.50;;;13.96;86.38
22241;BME280;11289;52.524;13.694;2022-10-16T00:18:47;100547.06;;;13.86;86.35
22241;BME280;11289;52.524;13.694;2022-10-16T00:21:16;100554.47;;;13.95;86.63
22241;BME280;11289;52.524;13.694;2022-10-16T00:23:42;100566.91;;;13.97;86.32
22241;BME280;11289;52.524;13.694;2022-10-16T00:26:10;100576.91;;;13.98;86.84
22241;BME280;11289;52.524;13.694;2022-10-16T00:28:36;100565.28;;;13.96;86.95
22241;BME280;11289;52.524;13.694;2022-10-16T00:31:06;100566.91;;;13.97;87.19
22241;BME280;11289;52.524;13.694;2022-10-16T00:33:33;100572.50;;;13.97;86.94
22241;BME280;11289;52.524;13.694;2022-10-16T00:35:59;100562.75;;;13.91;86.82
22241;BME280;11289;52.524;13.694;2022-10-16T00:38:25;100572.75;;;13.92;87.11
22241;BME280;11289;52.524;13.694;2022-10-16T00:40:50;100580.41;;;13.95;87.12
22241;BME280;11289;52.524;13.694;2022-10-16T00:46:09;100582.03;;;13.96;87.82
22241;BME280;11289;52.524;13.694;2022-10-16T00:48:36;100591.56;;;13.95;88.08
22241;BME280;11289;52.524;13.694;2022-10-16T00:51:02;100579.47;;;13.91;88.08
22241;BME280;11289;52.524;13.694;2022-10-16T00:53:28;100553.28;;;13.80;88.38
22241;BME280;11289;52.524;13.694;2022-10-16T00:55:54;100583.41;;;14.02;88.62
22241;BME280;11289;52.524;13.694;2022-10-16T00:58:20;100583.16;;;14.07;88.73
22241;BME280;11289;52.524;13.694;2022-10-16T01:00:46;100580.59;;;14.02;88.58
22241;BME280;11289;52.524;13.694;2022-10-16T01:03:28;100583.25;;;14.11;88.42
22241;BME280;11289;52.524;13.694;2022-10-16T01:06:07;100587.31;;;14.14;88.34
22241;BME280;11289;52.524;13.694;2022-10-16T01:11:28;100590.53;;;14.16;88.64
22241;BME280;11289;52.524;13.694;2022-10-16T01:14:00;100576.88;;;14.10;88.70
22241;BME280;11289;52.524;13.694;2022-10-16T01:16:35;100580.94;;;14.13;88.60
22241;BME280;11289;52.524;13.694;2022-10-16T01:19:36;100595.41;;;14.19;88.66
22241;BME280;11289;52.524;13.694;2022-10-16T01:22:05;100569.00;;;14.00;88.46
22241;BME280;11289;52.524;13.694;2022-10-16T01:29:53;100583.72;;;14.13;88.27
22241;BME280;11289;52.524;13.694;2022-10-16T01:32:28;100583.59;;;14.09;88.22
22241;BME280;11289;52.524;13.694;2022-10-16T01:35:02;100601.28;;;14.14;87.91
22241;BME280;11289;52.524;13.694;2022-10-16T01:40:16;100610.72;;;14.09;88.00
22241;BME280;11289;52.524;13.694;2022-10-16T01:42:46;100591.56;;;13.95;87.84
22241;BME280;11289;52.524;13.694;2022-10-16T01:45:15;100608.63;;;14.06;88.03
22241;BME280;11289;52.524;13.694;2022-10-16T01:47:43;100607.38;;;14.03;87.58
22241;BME280;11289;52.524;13.694;2022-10-16T01:50:10;100616.09;;;14.02;87.95
22241;BME280;11289;52.524;13.694;2022-10-16T01:52:39;100612.81;;;14.00;88.11
22241;BME280;11289;52.524;13.694;2022-10-16T01:55:06;100620.59;;;14.06;88.24
22241;BME280;11289;52.524;13.694;2022-10-16T01:57:36;100621.41;;;14.07;88.84
22241;BME280;11289;52.524;13.694;2022-10-16T02:00:08;100613.38;;;14.05;88.58
22241;BME280;11289;52.524;13.694;2022-10-16T02:02:36;100615.47;;;14.08;88.97
22241;BME280;11289;52.524;13.694;2022-10-16T02:05:10;100607.38;;;14.03;89.04
22241;BME280;11289;52.524;13.694;2022-10-16T02:07:37;100617.47;;;14.08;88.77
22241;BME280;11289;52.524;13.694;2022-10-16T02:10:03;100629.44;;;14.08;89.12
22241;BME280;11289;52.524;13.694;2022-10-16T02:12:31;100635.13;;;14.12;89.15
22241;BME280;11289;52.524;13.694;2022-10-16T02:14:58;100628.63;;;14.08;89.05
22241;BME280;11289;52.524;13.694;2022-10-16T02:17:24;100631.63;;;14.15;89.38
22241;BME280;11289;52.524;13.694;2022-10-16T02:19:51;100632.44;;;14.16;89.21
22241;BME280;11289;52.524;13.694;2022-10-16T02:22:24;100635.56;;;14.14;89.33
22241;BME280;11289;52.524;13.694;2022-10-16T02:24:56;100638.00;;;14.16;89.21
22241;BME280;11289;52.524;13.694;2022-10-16T02:29:54;100644.78;;;14.15;89.15
22241;BME280;11289;52.524;13.694;2022-10-16T02:32:24;100644.88;;;14.18;89.05
22241;BME280;11289;52.524;13.694;2022-10-16T02:34:54;100640.81;;;14.16;89.00
22241;BME280;11289;52.524;13.694;2022-10-16T02:37:20;100634.31;;;14.12;89.23
22241;BME280;11289;52.524;13.694;2022-10-16T02:39:45;100631.28;;;14.17;89.34
22241;BME280;11289;52.524;13.694;2022-10-16T02:42:14;100639.41;;;14.22;89.34
22241;BME280;11289;52.524;13.694;2022-10-16T02:44:40;100634.50;;;14.19;89.57
22241;BME280;11289;52.524;13.694;2022-10-16T02:47:06;100632.91;;;14.18;89.32
22241;BME280;11289;52.524;13.694;2022-10-16T02:49:31;100645.66;;;14.19;89.16
22241;BME280;11289;52.524;13.694;2022-10-16T02:51:56;100641.72;;;14.20;89.45
22241;BME280;11289;52.524;13.694;2022-10-16T02:54:22;100635.22;;;14.16;89.09
22241;BME280;11289;52.524;13.694;2022-10-16T02:56:47;100648.94;;;14.21;88.98
22241;BME280;11289;52.524;13.694;2022-10-16T02:59:13;100637.66;;;14.17;88.95
22241;BME280;11289;52.524;13.694;2022-10-16T03:01:38;100640.44;;;14.17;88.74
22241;BME280;11289;52.524;13.694;2022-10-16T03:04:04;100637.13;;;14.12;88.81
22241;BME280;11289;52.524;13.694;2022-10-16T03:06:29;100656.50;;;14.20;88.62
22241;BME280;11289;52.524;13.694;2022-10-16T03:08:54;100651.63;;;14.17;88.71
22241;BME280;11289;52.524;13.694;2022-10-16T03:11:20;100663.63;;;14.18;88.55
22241;BME280;11289;52.524;13.694;2022-10-16T03:13:45;100660.81;;;14.18;88.45
22241;BME280;11289;52.524;13.694;2022-10-16T03:16:11;100653.97;;;14.15;88.37
22241;BME280;11289;52.524;13.694;2022-10-16T03:18:36;100657.91;;;14.14;88.63
22241;BME280;11289;52.524;13.694;2022-10-16T03:21:02;100676.06;;;14.20;88.43
22241;BME280;11289;52.524;13.694;2022-10-16T03:23:27;100664.69;;;14.13;88.59
22241;BME280;11289;52.524;13.694;2022-10-16T03:25:53;100669.06;;;14.14;88.13
22241;BME280;11289;52.524;13.694;2022-10-16T03:28:19;100673.16;;;14.17;88.14
22241;BME280;11289;52.524;13.694;2022-10-16T03:30:44;100671.50;;;14.16;88.08
22241;BME280;11289;52.524;13.694;2022-10-16T03:33:09;100682.31;;;14.17;87.99
22241;BME280;11289;52.524;13.694;2022-10-16T03:35:35;100681.06;;;14.15;87.94
22241;BME280;11289;52.524;13.694;2022-10-16T03:38:00;100678.16;;;14.11;88.08
22241;BME280;11289;52.524;13.694;2022-10-16T03:40:26;100672.47;;;14.07;87.79
22241;BME280;11289;52.524;13.694;2022-10-16T03:42:51;100669.94;;;14.02;87.77
22241;BME280;11289;52.524;13.694;2022-10-16T03:45:17;100684.47;;;14.08;88.10
22241;BME280;11289;52.524;13.694;2022-10-16T03:47:42;100693.91;;;14.03;87.72
22241;BME280;11289;52.524;13.694;2022-10-16T03:50:08;100698.41;;;14.08;87.10
22241;BME280;11289;52.524;13.694;2022-10-16T03:52:34;100680.53;;;13.97;86.87
22241;BME280;11289;52.524;13.694;2022-10-16T03:54:59;100702.72;;;14.05;86.83
22241;BME280;11289;52.524;13.694;2022-10-16T03:57:25;100707.84;;;14.03;87.24
22241;BME280;11289;52.524;13.694;2022-10-16T03:59:50;100709.25;;;13.97;87.32
22241;BME280;11289;52.524;13.694;2022-10-16T04:02:16;100716.09;;;14.00;87.24
22241;BME280;11289;52.524;13.694;2022-10-16T04:04:41;100707.41;;;13.89;87.31
22241;BME280;11289;52.524;13.694;2022-10-16T04:07:07;100725.88;;;13.93;87.78
22241;BME280;11289;52.524;13.694;2022-10-16T04:09:33;100727.53;;;13.95;87.76
22241;BME280;11289;52.524;13.694;2022-10-16T04:11:58;100712.41;;;13.83;88.34
22241;BME280;11289;52.524;13.694;2022-10-16T04:14:23;100731.72;;;13.88;88.48
22241;BME280;11289;52.524;13.694;2022-10-16T04:16:49;100730.88;;;13.88;89.00
22241;BME280;11289;52.524;13.694;2022-10-16T04:19:14;100730.88;;;13.88;88.54
22241;BME280;11289;52.524;13.694;2022-10-16T04:21:40;100729.38;;;13.90;88.58
22241;BME280;11289;52.524;13.694;2022-10-16T04:24:05;100719.63;;;13.84;88.64
22241;BME280;11289;52.524;13.694;2022-10-16T04:26:30;100723.47;;;13.80;88.24
22241;BME280;11289;52.524;13.694;2022-10-16T04:28:56;100740.91;;;13.89;88.20
22241;BME280;11289;52.524;13.694;2022-10-16T04:31:21;100759.28;;;13.90;87.70
22241;BME280;11289;52.524;13.694;2022-10-16T04:33:47;100745.09;;;13.83;87.78
22241;BME280;11289;52.524;13.694;2022-10-16T04:36:13;100749.28;;;13.89;87.66
22241;BME280;11289;52.524;13.694;2022-10-16T04:38:38;100740.22;;;13.80;87.77
22241;BME280;11289;52.524;13.694;2022-10-16T04:41:05;100743.91;;;13.84;87.91
22241;BME280;11289;52.524;13.694;2022-10-16T04:43:31;100741.13;;;13.84;87.83
22241;BME280;11289;52.524;13.694;2022-10-16T04:45:56;100745.19;;;13.86;87.92
22241;BME280;11289;52.524;13.694;2022-10-16T04:48:22;100739.16;;;13.84;87.53
22241;BME280;11289;52.524;13.694;2022-10-16T04:50:47;100719.84;;;13.79;87.52
22241;BME280;11289;52.524;13.694;2022-10-16T04:53:13;100709.03;;;13.78;87.44
22241;BME280;11289;52.524;13.694;2022-10-16T04:55:39;100714.19;;;13.75;87.23
22241;BME280;11289;52.524;13.694;2022-10-16T04:58:05;100733.81;;;13.79;86.92
22241;BME280;11289;52.524;13.694;2022-10-16T05:00:30;100724.97;;;13.65;86.88
22241;BME280;11289;52.524;13.694;2022-10-16T05:02:56;100731.84;;;13.67;86.72
22241;BME280;11289;52.524;13.694;2022-10-16T05:05:22;100730.34;;;13.70;86.56
22241;BME280;11289;52.524;13.694;2022-10-16T05:07:48;100715.56;;;13.57;86.71
22241;BME280;11289;52.524;13.694;2022-10-16T05:10:14;100726.72;;;13.69;86.99
22241;BME280;11289;52.524;13.694;2022-10-16T05:12:40;100728.94;;;13.64;86.54
22241;BME280;11289;52.524;13.694;2022-10-16T05:15:06;100739.97;;;13.60;86.46
22241;BME280;11289;52.524;13.694;2022-10-16T05:17:31;100740.66;;;13.57;86.29
22241;BME280;11289;52.524;13.694;2022-10-16T05:19:56;100764.63;;;13.58;86.29
22241;BME280;11289;52.524;13.694;2022-10-16T05:22:22;100765.66;;;13.53;86.04
22241;BME280;11289;52.524;13.694;2022-10-16T05:24:47;100775.53;;;13.51;86.01
22241;BME280;11289;52.524;13.694;2022-10-16T05:27:13;100761.22;;;13.40;85.57
22241;BME280;11289;52.524;13.694;2022-10-16T05:29:45;100779.47;;;13.50;86.20
22241;BME280;11289;52.524;13.694;2022-10-16T05:32:12;100778.09;;;13.44;85.96
22241;BME280;11289;52.524;13.694;2022-10-16T05:34:37;100783.19;;;13.41;86.00
22241;BME280;11289;52.524;13.694;2022-10-16T05:37:02;100773.22;;;13.40;86.07
22241;BME280;11289;52.524;13.694;2022-10-16T05:39:28;100778.78;;;13.40;86.03
22241;BME280;11289;52.524;13.694;2022-10-16T05:41:53;100778.78;;;13.40;86.09
22241;BME280;11289;52.524;13.694;2022-10-16T05:44:18;100768.28;;;13.37;86.53
22241;BME280;11289;52.524;13.694;2022-10-16T05:46:46;100770.28;;;13.37;86.53
22241;BME280;11289;52.524;13.694;2022-10-16T05:49:11;100771.09;;;13.37;86.55
22241;BME280;11289;52.524;13.694;2022-10-16T05:51:37;100763.41;;;13.34;86.56
22241;BME280;11289;52.524;13.694;2022-10-16T05:54:02;100771.44;;;13.36;86.39
22241;BME280;11289;52.524;13.694;2022-10-16T05:56:27;100782.25;;;13.37;86.32
22241;BME280;11289;52.524;13.694;2022-10-16T05:58:53;100794.69;;;13.40;86.58
22241;BME280;11289;52.524;13.694;2022-10-16T06:01:19;100792.84;;;13.44;86.67
22241;BME280;11289;52.524;13.694;2022-10-16T06:03:46;100795.28;;;13.46;86.84
22241;BME280;11289;52.524;13.694;2022-10-16T06:06:16;100789.69;;;13.46;86.89
22241;BME280;11289;52.524;13.694;2022-10-16T06:08:43;100792.97;;;13.48;86.90
22241;BME280;11289;52.524;13.694;2022-10-16T06:11:12;100786.22;;;13.49;87.23
22241;BME280;11289;52.524;13.694;2022-10-16T06:13:38;100769.00;;;13.34;86.68
22241;BME280;11289;52.524;13.694;2022-10-16T06:16:06;100789.94;;;13.40;86.85
22241;BME280;11289;52.524;13.694;2022-10-16T06:18:31;100802.84;;;13.45;86.45
22241;BME280;11289;52.524;13.694;2022-10-16T06:20:57;100801.75;;;13.37;86.53
22241;BME280;11289;52.524;13.694;2022-10-16T06:23:23;100815.75;;;13.50;86.87
22241;BME280;11289;52.524;13.694;2022-10-16T06:25:48;100817.84;;;13.53;87.03
22241;BME280;11289;52.524;13.694;2022-10-16T06:28:14;100811.44;;;13.52;87.17
22241;BME280;11289;52.524;13.694;2022-10-16T06:30:40;100818.78;;;13.57;87.59
22241;BME280;11289;52.524;13.694;2022-10-16T06:33:05;100823.19;;;13.58;87.68
22241;BME280;11289;52.524;13.694;2022-10-16T06:35:31;100819.03;;;13.64;87.82
22241;BME280;11289;52.524;13.694;2022-10-16T06:37:57;100809.94;;;13.67;88.45
22241;BME280;11289;52.524;13.694;2022-10-16T06:40:22;100809.59;;;13.69;88.74
22241;BME280;11289;52.524;13.694;2022-10-16T06:42:48;100806.13;;;13.72;88.67
22241;BME280;11289;52.524;13.694;2022-10-16T06:45:13;100805.19;;;13.68;88.26
22241;BME280;11289;52.524;13.694;2022-10-16T06:47:39;100821.25;;;13.83;88.28
22241;BME280;11289;52.524;13.694;2022-10-16T06:50:05;100838.44;;;13.85;88.66
22241;BME280;11289;52.524;13.694;2022-10-16T06:52:32;100836.13;;;13.87;88.88
22241;BME280;11289;52.524;13.694;2022-10-16T06:54:58;100828.47;;;13.84;88.94
22241;BME280;11289;52.524;13.694;2022-10-16T06:57:23;100851.63;;;13.97;89.23
22241;BME280;11289;52.524;13.694;2022-10-16T06:59:49;100854.06;;;13.99;89.16
22241;BME280;11289;52.524;13.694;2022-10-16T07:02:14;100845.31;;;14.00;89.53
22241;BME280;11289;52.524;13.694;2022-10-16T07:04:40;100855.78;;;14.03;89.69
22241;BME280;11289;52.524;13.694;2022-10-16T07:07:05;100852.75;;;14.08;90.10
22241;BME280;11289;52.524;13.694;2022-10-16T07:09:30;100864.50;;;14.14;89.72
22241;BME280;11289;52.524;13.694;2022-10-16T07:11:56;100859.06;;;14.18;90.11
22241;BME280;11289;52.524;13.694;2022-10-16T07:14:22;100856.50;;;14.25;90.01
22241;BME280;11289;52.524;13.694;2022-10-16T07:16:48;100850.06;;;14.24;90.49
22241;BME280;11289;52.524;13.694;2022-10-16T07:19:13;100852.63;;;14.30;90.38
22241;BME280;11289;52.524;13.694;2022-10-16T07:21:40;100862.97;;;14.41;90.02
22241;BME280;11289;52.524;13.694;2022-10-16T07:24:11;100854.28;;;14.31;90.59
22241;BME280;11289;52.524;13.694;2022-10-16T07:26:37;100880.63;;;14.58;90.69
22241;BME280;11289;52.524;13.694;2022-10-16T07:29:05;100883.00;;;14.68;91.09
22241;BME280;11289;52.524;13.694;2022-10-16T07:31:31;100874.38;;;14.73;90.95
22241;BME280;11289;52.524;13.694;2022-10-16T07:33:59;100870.13;;;14.92;91.75
22241;BME280;11289;52.524;13.694;2022-10-16T07:36:24;100877.06;;;15.10;90.54
22241;BME280;11289;52.524;13.694;2022-10-16T07:38:50;100878.16;;;15.22;90.82
22241;BME280;11289;52.524;13.694;2022-10-16T07:41:18;100886.34;;;15.43;91.05
22241;BME280;11289;52.524;13.694;2022-10-16T07:43:48;100900.81;;;15.61;91.12
22241;BME280;11289;52.524;13.694;2022-10-16T07:46:13;100878.53;;;15.64;90.05
22241;BME280;11289;52.524;13.694;2022-10-16T07:48:39;100869.97;;;15.73;89.21
22241;BME280;11289;52.524;13.694;2022-10-16T07:51:06;100875.59;;;15.89;88.15
22241;BME280;11289;52.524;13.694;2022-10-16T07:53:32;100863.50;;;15.85;85.23
22241;BME280;11289;52.524;13.694;2022-10-16T07:55:59;100883.53;;;16.03;86.46
22241;BME280;11289;52.524;13.694;2022-10-16T07:58:25;100883.91;;;16.01;85.89
22241;BME280;11289;52.524;13.694;2022-10-16T08:00:50;100886.88;;;16.09;86.69
22241;BME280;11289;52.524;13.694;2022-10-16T08:03:16;100878.03;;;16.07;86.24
22241;BME280;11289;52.524;13.694;2022-10-16T08:05:41;100878.47;;;16.09;85.23
22241;BME280;11289;52.524;13.694;2022-10-16T08:08:10;100877.50;;;16.01;85.24
22241;BME280;11289;52.524;13.694;2022-10-16T08:10:36;100875.59;;;16.05;85.54
22241;BME280;11289;52.524;13.694;2022-10-16T08:13:02;100879.69;;;16.08;85.65
22241;BME280;11289;52.524;13.694;2022-10-16T08:15:27;100889.69;;;16.09;85.91
22241;BME280;11289;52.524;13.694;2022-10-16T08:18:03;100892.66;;;16.16;86.11
22241;BME280;11289;52.524;13.694;2022-10-16T08:20:30;100904.78;;;16.20;85.90
22241;BME280;11289;52.524;13.694;2022-10-16T08:22:56;100902.44;;;16.22;85.71
22241;BME280;11289;52.524;13.694;2022-10-16T08:25:22;100923.38;;;16.28;86.16
22241;BME280;11289;52.524;13.694;2022-10-16T08:27:48;100923.94;;;16.34;85.42
22241;BME280;11289;52.524;13.694;2022-10-16T08:30:14;100913.25;;;16.40;85.59
22241;BME280;11289;52.524;13.694;2022-10-16T08:32:40;100893.13;;;16.34;85.42
22241;BME280;11289;52.524;13.694;2022-10-16T08:35:08;100906.63;;;16.48;84.70
22241;BME280;11289;52.524;13.694;2022-10-16T08:37:34;100901.56;;;16.53;84.57
22241;BME280;11289;52.524;13.694;2022-10-16T08:40:00;100899.72;;;16.61;85.11
22241;BME280;11289;52.524;13.694;2022-10-16T08:45:23;100914.44;;;16.74;84.13
22241;BME280;11289;52.524;13.694;2022-10-16T08:50:42;100914.78;;;16.88;83.18
22241;BME280;11289;52.524;13.694;2022-10-16T08:53:15;100921.03;;;16.98;83.18
22241;BME280;11289;52.524;13.694;2022-10-16T08:55:52;100915.69;;;16.93;82.13
22241;BME280;11289;52.524;13.694;2022-10-16T08:58:20;100914.22;;;16.99;81.77
22241;BME280;11289;52.524;13.694;2022-10-16T09:00:49;100917.53;;;17.04;81.57
22241;BME280;11289;52.524;13.694;2022-10-16T09:20:29;100932.63;;;17.16;81.75
22241;BME280;11289;52.524;13.694;2022-10-16T09:23:26;100937.84;;;17.56;80.48
22241;BME280;11289;52.524;13.694;2022-10-16T09:25:53;100946.81;;;17.85;79.83
22241;BME280;11289;52.524;13.694;2022-10-16T09:28:20;100949.97;;;18.03;78.92
22241;BME280;11289;52.524;13.694;2022-10-16T09:30:46;100934.00;;;18.07;77.12
22241;BME280;11289;52.524;13.694;2022-10-16T09:33:14;100944.09;;;18.35;76.44
22241;BME280;11289;52.524;13.694;2022-10-16T09:35:42;100948.06;;;18.57;76.57
22241;BME280;11289;52.524;13.694;2022-10-16T09:38:08;100949.38;;;18.64;74.33
22241;BME280;11289;52.524;13.694;2022-10-16T09:40:38;100934.75;;;18.54;72.73
22241;BME280;11289;52.524;13.694;2022-10-16T09:46:02;100939.56;;;18.54;72.64
22241;BME280;11289;52.524;13.694;2022-10-16T09:48:37;100963.19;;;18.76;73.02
22241;BME280;11289;52.524;13.694;2022-10-16T09:51:06;100950.44;;;19.09;72.67
22241;BME280;11289;52.524;13.694;2022-10-16T09:53:43;100954.75;;;19.63;71.95
22241;BME280;11289;52.524;13.694;2022-10-16T09:56:21;100960.13;;;20.17;68.06
22241;BME280;11289;52.524;13.694;2022-10-16T09:59:11;100959.25;;;20.54;65.78
22241;BME280;11289;52.524;13.694;2022-10-16T10:01:46;100964.13;;;20.61;65.16
22241;BME280;11289;52.524;13.694;2022-10-16T10:04:12;100961.59;;;20.45;65.08
22241;BME280;11289;52.524;13.694;2022-10-16T10:06:45;100973.56;;;20.31;64.44
22241;BME280;11289;52.524;13.694;2022-10-16T10:11:53;100966.59;;;20.21;65.28
22241;BME280;11289;52.524;13.694;2022-10-16T10:14:25;100978.72;;;20.22;65.55
22241;BME280;11289;52.524;13.694;2022-10-16T10:17:01;100977.88;;;20.17;65.04
22241;BME280;11289;52.524;13.694;2022-10-16T10:19:27;100972.09;;;20.07;65.35
22241;BME280;11289;52.524;13.694;2022-10-16T10:21:53;100969.19;;;19.96;65.63
22241;BME280;11289;52.524;13.694;2022-10-16T10:24:19;100993.75;;;19.95;65.02
22241;BME280;11289;52.524;13.694;2022-10-16T10:26:49;100991.59;;;19.85;65.66
22241;BME280;11289;52.524;13.694;2022-10-16T10:32:11;100993.31;;;19.93;65.93
22241;BME280;11289;52.524;13.694;2022-10-16T10:40:36;100990.66;;;20.08;64.81
22241;BME280;11289;52.524;13.694;2022-10-16T10:46:11;100987.56;;;20.20;64.74
22241;BME280;11289;52.524;13.694;2022-10-16T10:51:59;101011.06;;;20.35;63.79
22241;BME280;11289;52.524;13.694;2022-10-16T10:55:09;101010.06;;;20.61;62.73
22241;BME280;11289;52.524;13.694;2022-10-16T10:57:52;101005.03;;;20.85;61.93
22241;BME280;11289;52.524;13.694;2022-10-16T11:00:29;101006.81;;;21.11;61.27
22241;BME280;11289;52.524;13.694;2022-10-16T11:08:16;101014.03;;;21.05;58.58
22241;BME280;11289;52.524;13.694;2022-10-16T11:11:00;101012.44;;;21.08;60.08
22241;BME280;11289;52.524;13.694;2022-10-16T11:16:18;101014.19;;;21.34;58.96
22241;BME280;11289;52.524;13.694;2022-10-16T11:18:52;101011.34;;;21.30;58.55
22241;BME280;11289;52.524;13.694;2022-10-16T11:21:21;101021.59;;;21.60;57.82
22241;BME280;11289;52.524;13.694;2022-10-16T11:23:56;101023.28;;;21.68;57.26
22241;BME280;11289;52.524;13.694;2022-10-16T11:26:30;101016.06;;;21.89;57.28
22241;BME280;11289;52.524;13.694;2022-10-16T11:29:00;101016.16;;;22.25;55.79
22241;BME280;11289;52.524;13.694;2022-10-16T11:31:36;101013.75;;;22.52;54.67
22241;BME280;11289;52.524;13.694;2022-10-16T11:34:15;101022.66;;;22.40;54.53
22241;BME280;11289;52.524;13.694;2022-10-16T11:36:58;101008.84;;;22.20;54.09
22241;BME280;11289;52.524;13.694;2022-10-16T11:39:28;101017.69;;;22.04;53.44
22241;BME280;11289;52.524;13.694;2022-10-16T11:42:02;101026.50;;;21.81;53.39
22241;BME280;11289;52.524;13.694;2022-10-16T11:49:38;101022.31;;;21.43;54.59
22241;BME280;11289;52.524;13.694;2022-10-16T11:52:33;101019.03;;;21.33;54.93
22241;BME280;11289;52.524;13.694;2022-10-16T11:55:20;101015.81;;;21.35;55.25
22241;BME280;11289;52.524;13.694;2022-10-16T11:57:53;101013.44;;;21.48;55.88
22241;BME280;11289;52.524;13.694;2022-10-16T12:03:31;101018.38;;;21.58;52.87
22241;BME280;11289;52.524;13.694;2022-10-16T12:06:31;101023.91;;;21.36;53.50
22241;BME280;11289;52.524;13.694;2022-10-16T12:09:00;101029.47;;;21.22;52.35
22241;BME280;11289;52.524;13.694;2022-10-16T12:14:02;101034.53;;;20.98;52.48
22241;BME280;11289;52.524;13.694;2022-10-16T12:16:28;101033.25;;;20.85;52.93
22241;BME280;11289;52.524;13.694;2022-10-16T12:19:15;101044.19;;;20.90;52.97
22241;BME280;11289;52.524;13.694;2022-10-16T12:21:42;101051.06;;;20.93;52.81
22241;BME280;11289;52.524;13.694;2022-10-16T12:26:46;101045.53;;;21.11;52.28
22241;BME280;11289;52.524;13.694;2022-10-16T12:29:29;101056.16;;;21.39;51.60
22241;BME280;11289;52.524;13.694;2022-10-16T12:31:56;101050.66;;;21.61;51.17
22241;BME280;11289;52.524;13.694;2022-10-16T12:34:58;101042.22;;;21.68;50.49
22241;BME280;11289;52.524;13.694;2022-10-16T12:37:24;101045.50;;;21.81;48.71
22241;BME280;11289;52.524;13.694;2022-10-16T12:39:50;101054.03;;;21.91;49.43
22241;BME280;11289;52.524;13.694;2022-10-16T12:42:23;101053.22;;;21.98;50.18
22241;BME280;11289;52.524;13.694;2022-10-16T12:44:49;101044.78;;;22.02;49.19
22241;BME280;11289;52.524;13.694;2022-10-16T12:47:37;101052.84;;;22.07;48.94
22241;BME280;11289;52.524;13.694;2022-10-16T12:50:03;101056.50;;;22.07;48.43
22241;BME280;11289;52.524;13.694;2022-10-16T12:52:48;101064.16;;;22.07;48.65
22241;BME280;11289;52.524;13.694;2022-10-16T12:55:21;101057.25;;;21.97;48.50
22241;BME280;11289;52.524;13.694;2022-10-16T13:08:33;101081.63;;;21.46;49.99
22241;BME280;11289;52.524;13.694;2022-10-16T13:11:08;101079.59;;;21.39;49.79
22241;BME280;11289;52.524;13.694;2022-10-16T13:16:49;101083.50;;;21.24;50.66
22241;BME280;11289;52.524;13.694;2022-10-16T13:27:52;101088.47;;;20.86;50.10
22241;BME280;11289;52.524;13.694;2022-10-16T13:30:21;101096.94;;;20.86;51.06
22241;BME280;11289;52.524;13.694;2022-10-16T13:32:50;101080.28;;;20.70;51.08
22241;BME280;11289;52.524;13.694;2022-10-16T13:35:29;101097.16;;;20.66;51.57
22241;BME280;11289;52.524;13.694;2022-10-16T13:38:08;101105.56;;;20.63;51.97
22241;BME280;11289;52.524;13.694;2022-10-16T13:40:36;101090.94;;;20.50;51.99
22241;BME280;11289;52.524;13.694;2022-10-16T13:43:02;101105.09;;;20.53;52.38
22241;BME280;11289;52.524;13.694;2022-10-16T13:45:27;101093.28;;;20.44;52.70
22241;BME280;11289;52.524;13.694;2022-10-16T13:48:09;101098.94;;;20.44;51.89
22241;BME280;11289;52.524;13.694;2022-10-16T13:50:38;101106.91;;;20.35;52.68
22241;BME280;11289;52.524;13.694;2022-10-16T13:53:13;101114.13;;;20.32;52.80
22241;BME280;11289;52.524;13.694;2022-10-16T13:55:42;101114.09;;;20.29;52.62
22241;BME280;11289;52.524;13.694;2022-10-16T13:58:12;101112.47;;;20.28;53.31
22241;BME280;11289;52.524;13.694;2022-10-16T14:00:55;101107.63;;;20.28;53.35
22241;BME280;11289;52.524;13.694;2022-10-16T14:03:21;101106.44;;;20.29;53.49
22241;BME280;11289;52.524;13.694;2022-10-16T14:05:51;101115.69;;;20.30;52.62
22241;BME280;11289;52.524;13.694;2022-10-16T14:08:17;101112.78;;;20.23;53.00
22241;BME280;11289;52.524;13.694;2022-10-16T14:10:48;101114.00;;;20.22;53.05
22241;BME280;11289;52.524;13.694;2022-10-16T14:13:19;101122.81;;;20.16;53.83
22241;BME280;11289;52.524;13.694;2022-10-16T14:15:49;101126.00;;;20.15;53.37
22241;BME280;11289;52.524;13.694;2022-10-16T14:18:21;101122.78;;;20.13;54.19
22241;BME280;11289;52.524;13.694;2022-10-16T14:20:49;101127.63;;;20.16;53.90
22241;BME280;11289;52.524;13.694;2022-10-16T14:23:31;101130.88;;;20.18;54.02
22241;BME280;11289;52.524;13.694;2022-10-16T14:28:34;101130.94;;;20.22;54.10
22241;BME280;11289;52.524;13.694;2022-10-16T14:31:01;101137.84;;;20.28;53.69
22241;BME280;11289;52.524;13.694;2022-10-16T14:38:30;101143.88;;;20.30;53.65
22241;BME280;11289;52.524;13.694;2022-10-16T14:40:58;101120.91;;;20.28;53.79